sensor_id;sensor_type;location;lat;lon;timestamp;P1;durP1;ratioP1;P2;durP2;ratioP2
15297;SDS011;7750;48.796;9.026;2022-11-30T00:04:42;26.17;;;17.63;;
15297;SDS011;7750;48.796;9.026;2022-11-30T00:09:42;24.87;;;18.07;;
15297;SDS011;7750;48.796;9.026;2022-11-30T00:14:43;25.20;;;17.90;;
15297;SDS011;7750;48.796;9.026;2022-11-30T00:19:44;33.13;;;18.73;;
15297;SDS011;7750;48.796;9.026;2022-11-30T00:24:44;23.90;;;16.63;;
15297;SDS011;7750;48.796;9.026;2022-11-30T00:29:45;28.97;;;19.70;;
15297;SDS011;7750;48.796;9.026;2022-11-30T00:34:45;28.10;;;18.97;;
15297;SDS011;7750;48.796;9.026;2022-11-30T00:39:46;23.97;;;16.93;;
15297;SDS011;7750;48.796;9.026;2022-11-30T00:44:47;24.40;;;16.70;;
15297;SDS011;7750;48.796;9.026;2022-11-30T00:49:47;26.53;;;18.33;;
15297;SDS011;7750;48.796;9.026;2022-11-30T00:54:48;30.30;;;19.80;;
15297;SDS011;7750;48.796;9.026;2022-11-30T00:59:49;32.13;;;21.00;;
15297;SDS011;7750;48.796;9.026;2022-11-30T01:04:50;31.27;;;20.57;;
15297;SDS011;7750;48.796;9.026;2022-11-30T01:09:50;33.97;;;20.80;;
15297;SDS011;7750;48.796;9.026;2022-11-30T01:14:51;27.77;;;18.80;;
15297;SDS011;7750;48.796;9.026;2022-11-30T01:19:51;34.23;;;22.30;;
15297;SDS011;7750;48.796;9.026;2022-11-30T01:24:52;33.33;;;22.37;;
15297;SDS011;7750;48.796;9.026;2022-11-30T01:29:53;30.47;;;20.50;;
15297;SDS011;7750;48.796;9.026;2022-11-30T01:34:53;33.50;;;21.90;;
15297;SDS011;7750;48.796;9.026;2022-11-30T01:39:54;34.13;;;22.40;;
15297;SDS011;7750;48.796;9.026;2022-11-30T01:44:55;34.37;;;23.27;;
15297;SDS011;7750;48.796;9.026;2022-11-30T01:50:00;35.53;;;24.13;;
15297;SDS011;7750;48.796;9.026;2022-11-30T01:55:26;40.47;;;22.83;;
15297;SDS011;7750;48.796;9.026;2022-11-30T02:00:53;34.07;;;23.50;;
15297;SDS011;7750;48.796;9.026;2022-11-30T02:05:54;35.77;;;23.67;;
15297;SDS011;7750;48.796;9.026;2022-11-30T02:10:57;33.00;;;20.73;;
15297;SDS011;7750;48.796;9.026;2022-11-30T02:16:19;34.47;;;22.90;;
15297;SDS011;7750;48.796;9.026;2022-11-30T02:32:41;31.90;;;20.37;;
15297;SDS011;7750;48.796;9.026;2022-11-30T02:37:48;31.00;;;20.70;;
15297;SDS011;7750;48.796;9.026;2022-11-30T02:42:52;35.00;;;23.70;;
15297;SDS011;7750;48.796;9.026;2022-11-30T02:47:58;35.90;;;20.93;;
15297;SDS011;7750;48.796;9.026;2022-11-30T02:53:10;27.40;;;19.93;;
15297;SDS011;7750;48.796;9.026;2022-11-30T02:58:10;32.60;;;22.37;;
15297;SDS011;7750;48.796;9.026;2022-11-30T03:03:13;26.07;;;18.80;;
15297;SDS011;7750;48.796;9.026;2022-11-30T03:08:13;29.83;;;19.20;;
15297;SDS011;7750;48.796;9.026;2022-11-30T03:13:14;25.80;;;18.97;;
15297;SDS011;7750;48.796;9.026;2022-11-30T03:18:14;28.90;;;22.20;;
15297;SDS011;7750;48.796;9.026;2022-11-30T03:23:15;29.90;;;21.50;;
15297;SDS011;7750;48.796;9.026;2022-11-30T03:28:16;24.23;;;18.53;;
15297;SDS011;7750;48.796;9.026;2022-11-30T03:33:17;27.10;;;18.03;;
15297;SDS011;7750;48.796;9.026;2022-11-30T03:38:17;25.47;;;17.27;;
15297;SDS011;7750;48.796;9.026;2022-11-30T03:43:18;22.30;;;14.90;;
15297;SDS011;7750;48.796;9.026;2022-11-30T03:48:18;22.07;;;16.30;;
15297;SDS011;7750;48.796;9.026;2022-11-30T03:53:20;27.50;;;18.00;;
15297;SDS011;7750;48.796;9.026;2022-11-30T03:58:22;18.20;;;13.33;;
15297;SDS011;7750;48.796;9.026;2022-11-30T04:03:23;21.97;;;15.87;;
15297;SDS011;7750;48.796;9.026;2022-11-30T04:08:24;20.87;;;16.63;;
15297;SDS011;7750;48.796;9.026;2022-11-30T04:13:25;23.33;;;16.47;;
15297;SDS011;7750;48.796;9.026;2022-11-30T04:18:27;20.77;;;15.90;;
15297;SDS011;7750;48.796;9.026;2022-11-30T04:23:33;24.00;;;16.70;;
15297;SDS011;7750;48.796;9.026;2022-11-30T04:28:35;23.07;;;16.13;;
15297;SDS011;7750;48.796;9.026;2022-11-30T04:33:36;20.67;;;16.07;;
15297;SDS011;7750;48.796;9.026;2022-11-30T04:38:37;19.70;;;14.20;;
15297;SDS011;7750;48.796;9.026;2022-11-30T04:43:37;18.20;;;15.00;;
15297;SDS011;7750;48.796;9.026;2022-11-30T04:48:38;21.63;;;15.17;;
15297;SDS011;7750;48.796;9.026;2022-11-30T04:53:39;19.70;;;15.27;;
15297;SDS011;7750;48.796;9.026;2022-11-30T04:58:39;22.30;;;16.97;;
15297;SDS011;7750;48.796;9.026;2022-11-30T05:03:40;20.23;;;15.10;;
15297;SDS011;7750;48.796;9.026;2022-11-30T05:08:40;19.47;;;14.40;;
15297;SDS011;7750;48.796;9.026;2022-11-30T05:13:41;20.57;;;15.03;;
15297;SDS011;7750;48.796;9.026;2022-11-30T05:18:42;22.70;;;16.50;;
15297;SDS011;7750;48.796;9.026;2022-11-30T05:23:42;20.00;;;15.97;;
15297;SDS011;7750;48.796;9.026;2022-11-30T05:28:43;17.47;;;12.50;;
15297;SDS011;7750;48.796;9.026;2022-11-30T05:33:43;16.33;;;13.23;;
15297;SDS011;7750;48.796;9.026;2022-11-30T05:38:52;19.37;;;14.20;;
15297;SDS011;7750;48.796;9.026;2022-11-30T05:43:53;22.53;;;16.27;;
15297;SDS011;7750;48.796;9.026;2022-11-30T05:48:53;18.60;;;14.60;;
15297;SDS011;7750;48.796;9.026;2022-11-30T05:53:54;20.77;;;15.87;;
15297;SDS011;7750;48.796;9.026;2022-11-30T05:58:54;19.33;;;14.73;;
15297;SDS011;7750;48.796;9.026;2022-11-30T06:03:55;32.67;;;14.90;;
15297;SDS011;7750;48.796;9.026;2022-11-30T06:08:56;21.57;;;14.50;;
15297;SDS011;7750;48.796;9.026;2022-11-30T06:13:56;27.33;;;15.60;;
15297;SDS011;7750;48.796;9.026;2022-11-30T06:18:57;25.23;;;13.90;;
15297;SDS011;7750;48.796;9.026;2022-11-30T06:23:57;19.27;;;14.13;;
15297;SDS011;7750;48.796;9.026;2022-11-30T06:28:58;20.07;;;14.77;;
15297;SDS011;7750;48.796;9.026;2022-11-30T06:33:59;40.97;;;15.97;;
15297;SDS011;7750;48.796;9.026;2022-11-30T06:38:59;23.63;;;15.00;;
15297;SDS011;7750;48.796;9.026;2022-11-30T06:44:00;20.47;;;14.90;;
15297;SDS011;7750;48.796;9.026;2022-11-30T06:49:01;19.17;;;14.40;;
15297;SDS011;7750;48.796;9.026;2022-11-30T06:54:01;18.33;;;13.77;;
15297;SDS011;7750;48.796;9.026;2022-11-30T06:59:02;50.43;;;13.20;;
15297;SDS011;7750;48.796;9.026;2022-11-30T07:04:02;24.07;;;15.67;;
15297;SDS011;7750;48.796;9.026;2022-11-30T07:09:03;23.70;;;13.70;;
15297;SDS011;7750;48.796;9.026;2022-11-30T07:14:04;42.77;;;15.23;;
15297;SDS011;7750;48.796;9.026;2022-11-30T07:19:04;29.53;;;15.20;;
15297;SDS011;7750;48.796;9.026;2022-11-30T07:24:05;89.17;;;16.17;;
15297;SDS011;7750;48.796;9.026;2022-11-30T07:29:24;28.03;;;12.70;;
15297;SDS011;7750;48.796;9.026;2022-11-30T07:34:25;18.33;;;13.73;;
15297;SDS011;7750;48.796;9.026;2022-11-30T07:39:26;21.43;;;11.90;;
15297;SDS011;7750;48.796;9.026;2022-11-30T07:44:26;21.20;;;12.20;;
15297;SDS011;7750;48.796;9.026;2022-11-30T07:49:27;19.03;;;13.20;;
15297;SDS011;7750;48.796;9.026;2022-11-30T07:54:27;16.97;;;12.70;;
15297;SDS011;7750;48.796;9.026;2022-11-30T07:59:28;15.30;;;12.87;;
15297;SDS011;7750;48.796;9.026;2022-11-30T08:04:29;20.67;;;13.53;;
15297;SDS011;7750;48.796;9.026;2022-11-30T08:09:30;19.83;;;14.00;;
15297;SDS011;7750;48.796;9.026;2022-11-30T08:14:31;24.47;;;13.20;;
15297;SDS011;7750;48.796;9.026;2022-11-30T08:19:31;22.20;;;12.87;;
15297;SDS011;7750;48.796;9.026;2022-11-30T08:24:32;29.70;;;11.83;;
15297;SDS011;7750;48.796;9.026;2022-11-30T08:29:33;36.23;;;16.17;;
15297;SDS011;7750;48.796;9.026;2022-11-30T08:34:33;19.97;;;14.70;;
15297;SDS011;7750;48.796;9.026;2022-11-30T08:39:34;17.53;;;13.80;;
15297;SDS011;7750;48.796;9.026;2022-11-30T08:44:34;16.80;;;12.53;;
15297;SDS011;7750;48.796;9.026;2022-11-30T08:49:35;20.43;;;13.63;;
15297;SDS011;7750;48.796;9.026;2022-11-30T08:54:36;18.30;;;13.23;;
15297;SDS011;7750;48.796;9.026;2022-11-30T08:59:38;20.53;;;15.40;;
15297;SDS011;7750;48.796;9.026;2022-11-30T09:04:38;23.60;;;15.30;;
15297;SDS011;7750;48.796;9.026;2022-11-30T09:09:39;18.90;;;13.70;;
15297;SDS011;7750;48.796;9.026;2022-11-30T09:14:40;18.60;;;13.03;;
15297;SDS011;7750;48.796;9.026;2022-11-30T09:19:41;28.10;;;17.85;;
15297;SDS011;7750;48.796;9.026;2022-11-30T09:24:41;19.00;;;14.90;;
15297;SDS011;7750;48.796;9.026;2022-11-30T09:29:42;18.23;;;12.97;;
15297;SDS011;7750;48.796;9.026;2022-11-30T09:34:42;18.40;;;13.87;;
15297;SDS011;7750;48.796;9.026;2022-11-30T09:39:43;18.40;;;14.27;;
15297;SDS011;7750;48.796;9.026;2022-11-30T09:45:27;22.40;;;15.23;;
15297;SDS011;7750;48.796;9.026;2022-11-30T09:55:20;19.10;;;14.07;;
15297;SDS011;7750;48.796;9.026;2022-11-30T10:00:29;17.33;;;13.53;;
15297;SDS011;7750;48.796;9.026;2022-11-30T10:05:44;19.40;;;14.03;;
15297;SDS011;7750;48.796;9.026;2022-11-30T10:10:58;18.37;;;13.63;;
15297;SDS011;7750;48.796;9.026;2022-11-30T10:16:22;19.37;;;13.43;;
15297;SDS011;7750;48.796;9.026;2022-11-30T10:26:55;18.47;;;14.20;;
15297;SDS011;7750;48.796;9.026;2022-11-30T10:31:58;23.00;;;15.00;;
15297;SDS011;7750;48.796;9.026;2022-11-30T10:37:04;25.33;;;15.57;;
15297;SDS011;7750;48.796;9.026;2022-11-30T10:42:16;17.23;;;13.13;;
15297;SDS011;7750;48.796;9.026;2022-11-30T10:47:22;23.00;;;15.13;;
15297;SDS011;7750;48.796;9.026;2022-11-30T10:52:28;22.20;;;15.60;;
15297;SDS011;7750;48.796;9.026;2022-11-30T10:58:01;22.63;;;16.00;;
15297;SDS011;7750;48.796;9.026;2022-11-30T11:03:21;21.43;;;14.40;;
15297;SDS011;7750;48.796;9.026;2022-11-30T11:08:24;19.27;;;13.80;;
15297;SDS011;7750;48.796;9.026;2022-11-30T11:18:51;21.73;;;14.60;;
15297;SDS011;7750;48.796;9.026;2022-11-30T11:23:54;19.47;;;13.20;;
15297;SDS011;7750;48.796;9.026;2022-11-30T11:28:56;18.37;;;13.47;;
15297;SDS011;7750;48.796;9.026;2022-11-30T11:34:01;17.10;;;12.90;;
15297;SDS011;7750;48.796;9.026;2022-11-30T11:39:08;19.50;;;13.47;;
15297;SDS011;7750;48.796;9.026;2022-11-30T11:44:25;21.10;;;14.93;;
15297;SDS011;7750;48.796;9.026;2022-11-30T11:49:27;22.60;;;14.83;;
15297;SDS011;7750;48.796;9.026;2022-11-30T11:54:33;21.03;;;14.60;;
15297;SDS011;7750;48.796;9.026;2022-11-30T12:15:31;19.97;;;13.60;;
15297;SDS011;7750;48.796;9.026;2022-11-30T12:31:39;18.30;;;13.50;;
15297;SDS011;7750;48.796;9.026;2022-11-30T12:37:34;21.90;;;15.40;;
15297;SDS011;7750;48.796;9.026;2022-11-30T12:48:21;19.57;;;12.70;;
15297;SDS011;7750;48.796;9.026;2022-11-30T13:09:40;19.20;;;13.83;;
15297;SDS011;7750;48.796;9.026;2022-11-30T13:14:46;15.73;;;12.07;;
15297;SDS011;7750;48.796;9.026;2022-11-30T13:19:52;17.23;;;12.60;;
15297;SDS011;7750;48.796;9.026;2022-11-30T13:30:24;15.90;;;11.97;;
15297;SDS011;7750;48.796;9.026;2022-11-30T13:35:51;18.13;;;13.37;;
15297;SDS011;7750;48.796;9.026;2022-11-30T13:41:03;18.27;;;12.30;;
15297;SDS011;7750;48.796;9.026;2022-11-30T13:46:06;18.77;;;13.70;;
15297;SDS011;7750;48.796;9.026;2022-11-30T13:51:32;15.67;;;12.00;;
15297;SDS011;7750;48.796;9.026;2022-11-30T13:56:34;15.67;;;11.70;;
15297;SDS011;7750;48.796;9.026;2022-11-30T14:01:35;16.27;;;10.67;;
15297;SDS011;7750;48.796;9.026;2022-11-30T14:06:44;13.80;;;10.17;;
15297;SDS011;7750;48.796;9.026;2022-11-30T14:11:54;13.87;;;10.07;;
15297;SDS011;7750;48.796;9.026;2022-11-30T14:16:55;12.43;;;9.13;;
15297;SDS011;7750;48.796;9.026;2022-11-30T14:21:57;14.60;;;10.80;;
15297;SDS011;7750;48.796;9.026;2022-11-30T14:26:57;14.90;;;11.00;;
15297;SDS011;7750;48.796;9.026;2022-11-30T14:37:39;16.10;;;12.20;;
15297;SDS011;7750;48.796;9.026;2022-11-30T14:42:46;15.40;;;11.30;;
15297;SDS011;7750;48.796;9.026;2022-11-30T14:48:13;16.93;;;11.00;;
15297;SDS011;7750;48.796;9.026;2022-11-30T14:53:18;14.67;;;10.60;;
15297;SDS011;7750;48.796;9.026;2022-11-30T14:58:29;16.20;;;11.40;;
15297;SDS011;7750;48.796;9.026;2022-11-30T15:03:37;15.67;;;11.20;;
15297;SDS011;7750;48.796;9.026;2022-11-30T15:08:42;17.83;;;12.20;;
15297;SDS011;7750;48.796;9.026;2022-11-30T15:13:52;17.60;;;12.37;;
15297;SDS011;7750;48.796;9.026;2022-11-30T15:19:24;17.43;;;11.77;;
15297;SDS011;7750;48.796;9.026;2022-11-30T15:24:30;14.80;;;10.30;;
15297;SDS011;7750;48.796;9.026;2022-11-30T15:29:35;15.67;;;11.17;;
15297;SDS011;7750;48.796;9.026;2022-11-30T15:34:48;15.57;;;11.33;;
15297;SDS011;7750;48.796;9.026;2022-11-30T15:39:50;23.50;;;13.60;;
15297;SDS011;7750;48.796;9.026;2022-11-30T15:45:06;15.97;;;12.53;;
15297;SDS011;7750;48.796;9.026;2022-11-30T16:00:56;17.67;;;13.63;;
15297;SDS011;7750;48.796;9.026;2022-11-30T16:06:04;23.10;;;15.57;;
15297;SDS011;7750;48.796;9.026;2022-11-30T16:11:04;22.27;;;14.83;;
15297;SDS011;7750;48.796;9.026;2022-11-30T16:16:12;19.70;;;13.27;;
15297;SDS011;7750;48.796;9.026;2022-11-30T16:21:15;22.20;;;16.03;;
15297;SDS011;7750;48.796;9.026;2022-11-30T16:26:17;22.03;;;14.30;;
15297;SDS011;7750;48.796;9.026;2022-11-30T16:31:19;21.27;;;14.70;;
15297;SDS011;7750;48.796;9.026;2022-11-30T16:36:20;20.60;;;13.00;;
15297;SDS011;7750;48.796;9.026;2022-11-30T16:41:22;18.97;;;13.67;;
15297;SDS011;7750;48.796;9.026;2022-11-30T16:46:25;19.50;;;13.93;;
15297;SDS011;7750;48.796;9.026;2022-11-30T16:51:30;26.27;;;19.57;;
15297;SDS011;7750;48.796;9.026;2022-11-30T16:56:33;27.43;;;18.87;;
15297;SDS011;7750;48.796;9.026;2022-11-30T17:01:35;28.03;;;20.27;;
15297;SDS011;7750;48.796;9.026;2022-11-30T17:06:41;30.37;;;21.90;;
15297;SDS011;7750;48.796;9.026;2022-11-30T17:11:42;37.60;;;24.60;;
15297;SDS011;7750;48.796;9.026;2022-11-30T17:16:45;28.50;;;21.03;;
15297;SDS011;7750;48.796;9.026;2022-11-30T17:21:46;24.27;;;17.40;;
15297;SDS011;7750;48.796;9.026;2022-11-30T17:26:49;28.33;;;19.50;;
15297;SDS011;7750;48.796;9.026;2022-11-30T17:31:49;28.97;;;20.20;;
15297;SDS011;7750;48.796;9.026;2022-11-30T17:36:51;28.67;;;20.00;;
15297;SDS011;7750;48.796;9.026;2022-11-30T17:41:55;30.23;;;19.77;;
15297;SDS011;7750;48.796;9.026;2022-11-30T17:46:55;31.40;;;21.63;;
15297;SDS011;7750;48.796;9.026;2022-11-30T17:51:56;26.70;;;18.53;;
15297;SDS011;7750;48.796;9.026;2022-11-30T17:56:57;25.30;;;18.30;;
15297;SDS011;7750;48.796;9.026;2022-11-30T18:01:57;21.40;;;15.77;;
15297;SDS011;7750;48.796;9.026;2022-11-30T18:06:58;21.33;;;13.80;;
15297;SDS011;7750;48.796;9.026;2022-11-30T18:11:58;17.70;;;13.70;;
15297;SDS011;7750;48.796;9.026;2022-11-30T18:16:59;15.20;;;11.70;;
15297;SDS011;7750;48.796;9.026;2022-11-30T18:22:00;16.50;;;12.00;;
15297;SDS011;7750;48.796;9.026;2022-11-30T18:27:00;16.83;;;12.57;;
15297;SDS011;7750;48.796;9.026;2022-11-30T18:32:01;15.50;;;11.93;;
15297;SDS011;7750;48.796;9.026;2022-11-30T18:37:02;17.70;;;13.03;;
15297;SDS011;7750;48.796;9.026;2022-11-30T18:42:02;18.20;;;14.00;;
15297;SDS011;7750;48.796;9.026;2022-11-30T18:47:03;18.07;;;13.47;;
15297;SDS011;7750;48.796;9.026;2022-11-30T18:52:04;16.33;;;12.47;;
15297;SDS011;7750;48.796;9.026;2022-11-30T18:57:04;20.50;;;13.43;;
15297;SDS011;7750;48.796;9.026;2022-11-30T19:02:06;18.87;;;13.23;;
15297;SDS011;7750;48.796;9.026;2022-11-30T19:07:09;17.87;;;12.37;;
15297;SDS011;7750;48.796;9.026;2022-11-30T19:12:09;18.63;;;14.20;;
15297;SDS011;7750;48.796;9.026;2022-11-30T19:17:10;19.13;;;13.50;;
15297;SDS011;7750;48.796;9.026;2022-11-30T19:22:11;22.60;;;14.87;;
15297;SDS011;7750;48.796;9.026;2022-11-30T19:27:11;20.57;;;14.30;;
15297;SDS011;7750;48.796;9.026;2022-11-30T19:32:12;23.40;;;15.63;;
15297;SDS011;7750;48.796;9.026;2022-11-30T19:37:13;18.03;;;13.47;;
15297;SDS011;7750;48.796;9.026;2022-11-30T19:42:13;24.80;;;16.93;;
15297;SDS011;7750;48.796;9.026;2022-11-30T19:47:14;22.23;;;14.40;;
15297;SDS011;7750;48.796;9.026;2022-11-30T19:52:15;24.87;;;15.80;;
15297;SDS011;7750;48.796;9.026;2022-11-30T19:57:16;23.97;;;16.03;;
15297;SDS011;7750;48.796;9.026;2022-11-30T20:02:16;22.13;;;15.03;;
15297;SDS011;7750;48.796;9.026;2022-11-30T20:07:17;25.03;;;15.90;;
15297;SDS011;7750;48.796;9.026;2022-11-30T20:12:17;24.70;;;16.33;;
15297;SDS011;7750;48.796;9.026;2022-11-30T20:17:18;23.20;;;15.17;;
15297;SDS011;7750;48.796;9.026;2022-11-30T20:22:19;21.03;;;14.57;;
15297;SDS011;7750;48.796;9.026;2022-11-30T20:27:20;21.80;;;16.40;;
15297;SDS011;7750;48.796;9.026;2022-11-30T20:32:24;26.67;;;17.03;;
15297;SDS011;7750;48.796;9.026;2022-11-30T20:37:24;25.00;;;16.90;;
15297;SDS011;7750;48.796;9.026;2022-11-30T20:42:25;28.80;;;18.40;;
15297;SDS011;7750;48.796;9.026;2022-11-30T20:47:25;25.00;;;16.37;;
15297;SDS011;7750;48.796;9.026;2022-11-30T20:52:26;22.90;;;15.50;;
15297;SDS011;7750;48.796;9.026;2022-11-30T20:57:27;21.43;;;13.97;;
15297;SDS011;7750;48.796;9.026;2022-11-30T21:02:27;21.63;;;15.10;;
15297;SDS011;7750;48.796;9.026;2022-11-30T21:07:28;24.50;;;16.50;;
15297;SDS011;7750;48.796;9.026;2022-11-30T21:12:29;24.97;;;16.37;;
15297;SDS011;7750;48.796;9.026;2022-11-30T21:17:30;25.13;;;16.30;;
15297;SDS011;7750;48.796;9.026;2022-11-30T21:22:30;26.17;;;17.00;;
15297;SDS011;7750;48.796;9.026;2022-11-30T21:27:31;25.07;;;15.30;;
15297;SDS011;7750;48.796;9.026;2022-11-30T21:32:31;23.10;;;15.10;;
15297;SDS011;7750;48.796;9.026;2022-11-30T21:37:32;19.97;;;13.87;;
15297;SDS011;7750;48.796;9.026;2022-11-30T21:42:33;21.57;;;13.17;;
15297;SDS011;7750;48.796;9.026;2022-11-30T21:47:33;17.90;;;12.23;;
15297;SDS011;7750;48.796;9.026;2022-11-30T21:52:34;16.13;;;11.30;;
15297;SDS011;7750;48.796;9.026;2022-11-30T21:57:35;19.10;;;12.37;;
15297;SDS011;7750;48.796;9.026;2022-11-30T22:02:36;16.87;;;11.70;;
15297;SDS011;7750;48.796;9.026;2022-11-30T22:07:37;18.17;;;12.00;;
15297;SDS011;7750;48.796;9.026;2022-11-30T22:12:37;18.87;;;12.47;;
15297;SDS011;7750;48.796;9.026;2022-11-30T22:17:38;21.73;;;14.37;;
15297;SDS011;7750;48.796;9.026;2022-11-30T22:22:38;21.67;;;14.30;;
15297;SDS011;7750;48.796;9.026;2022-11-30T22:27:39;25.20;;;14.87;;
15297;SDS011;7750;48.796;9.026;2022-11-30T22:32:39;20.97;;;13.27;;
15297;SDS011;7750;48.796;9.026;2022-11-30T22:37:40;22.63;;;15.50;;
15297;SDS011;7750;48.796;9.026;2022-11-30T22:42:41;27.00;;;15.37;;
15297;SDS011;7750;48.796;9.026;2022-11-30T22:47:41;26.63;;;17.33;;
15297;SDS011;7750;48.796;9.026;2022-11-30T22:52:42;29.27;;;18.13;;
15297;SDS011;7750;48.796;9.026;2022-11-30T22:57:43;26.37;;;16.80;;
15297;SDS011;7750;48.796;9.026;2022-11-30T23:02:43;31.30;;;17.43;;
15297;SDS011;7750;48.796;9.026;2022-11-30T23:07:44;31.23;;;18.73;;
15297;SDS011;7750;48.796;9.026;2022-11-30T23:12:44;30.83;;;17.77;;
15297;SDS011;7750;48.796;9.026;2022-11-30T23:17:45;26.37;;;17.27;;
15297;SDS011;7750;48.796;9.026;2022-11-30T23:22:46;27.87;;;19.70;;
15297;SDS011;7750;48.796;9.026;2022-11-30T23:27:46;31.27;;;20.80;;
15297;SDS011;7750;48.796;9.026;2022-11-30T23:32:47;33.90;;;20.70;;
15297;SDS011;7750;48.796;9.026;2022-11-30T23:37:51;33.57;;;21.57;;
15297;SDS011;7750;48.796;9.026;2022-11-30T23:42:52;34.23;;;21.87;;
15297;SDS011;7750;48.796;9.026;2022-11-30T23:47:52;28.70;;;19.50;;
15297;SDS011;7750;48.796;9.026;2022-11-30T23:52:53;35.47;;;21.23;;
15297;SDS011;7750;48.796;9.026;2022-11-30T23:57:53;34.87;;;22.73;;
